Lismore, New South Wales

9:14 AM AEST on June 30, 2015 (GMT +1000)
Lismore | | Change Station
CLOSE
Current Station
Personal Weather Station
Location: Goonellabah, New South Wales
Elevation: 564 ft
Nearby Weather Stations

Elev 564 ft 28.81 °S, 153.35 °E | Updated 2 seconds ago

Clear
Clear
58.6 °F
Feels Like 58.6 °F
N
4.0
Wind Variable Wind from SSW
Gusts 4.0 mph

Today
High -- | Low -- °F
--% Chance of Precip.
Yesterday
High -- | Low -- °F
Precip. -- in
6:40 AM 5:00 PM
Waxing Gibbous, 95% visible
Pressure 30.33 in
Visibility 6.2 miles
Clouds
Dew Point 57 °F
Humidity 95%
Rainfall 0.00 in
Snow Depth Not available.
UV Not available.
Pollen Not available.
Air Quality Not available.
Flu Activity Not available.
METAR YBCG 292300Z AUTO 20006KT 9999 // NCD 18/14 Q1027

More Conditions Fewer Conditions

Pressure 30.33 in
Visibility 6.2 miles
Clouds
Dew Point 57 °F
Humidity 95%
Rainfall 0.00 in
Snow Depth Not available.
UV Not available.
Pollen Not available.
Air Quality Not available.
Flu Activity Not available.
METAR YBCG 292300Z AUTO 20006KT 9999 // NCD 18/14 Q1027

More Conditions Fewer Conditions

10-Day Weather Forecast

×

Almanac

Astronomy

Jun. 30, 2015 Rise Set
Actual Time
Civil Twilight
Nautical Twilight
Astronomical Twilight
Moon
Length of Visible Light
Length of Day
Tomorrow will be .
, % of the Moon is Illuminated

Today's Extremes

Country Highs Country Lows

Community

WunderPhotos

Upload Photos

1,833,876 photos uploaded!

WunderBlogs® & News

Nearby

Air Quality

  Air Quality AQ Index Pollutant
Not available.

Snow Depth

Station Depth Elevation

Earthquake Activity

City Distance Mag. Time & Date
Minimum magnitude displayed is 2.5.

Coastal Water Temperatures

Place Temperature

Stations

Nearby Weather Stations

Station Location Temp. Windchill Dew Point Humidity Wind Precip. Elev Updated Type